Time,TemperatureF,DewpointF,PressureIn,WindDirection,WindDirectionDegrees,WindSpeedMPH,WindSpeedGustMPH,Humidity,HourlyPrecipIn,Conditions,Clouds,dailyrainin,SoftwareType,DateUTC
2013-04-27 00:00:00,32.3,29.7,30.40,WSW,244,0.0,0.0,90,0.00,,,0.03,Wunderground v.1.15,2013-04-27 04:00:00,
2013-04-27 00:01:00,32.4,30.1,30.40,N/A,-737280,0.0,-999.0,91,0.00,,,0.00,Wunderground v.1.15,2013-04-27 04:01:00,
2013-04-27 00:05:00,32.3,29.7,30.41,WSW,244,0.0,0.0,90,0.00,,,0.00,Wunderground v.1.15,2013-04-27 04:05:00,
2013-04-27 00:06:00,32.4,30.1,30.40,N/A,-737280,0.0,-999.0,91,0.00,,,0.00,Wunderground v.1.15,2013-04-27 04:06:00,
2013-04-27 00:10:00,32.2,29.6,30.41,WSW,244,0.0,0.0,90,0.00,,,0.00,Wunderground v.1.15,2013-04-27 04:10:00,
2013-04-27 00:11:00,32.4,30.1,30.40,N/A,-737280,0.0,-999.0,91,0.00,,,0.00,Wunderground v.1.15,2013-04-27 04:11:00,
2013-04-27 00:15:00,32.1,29.5,30.41,WSW,244,0.0,0.0,90,0.00,,,0.00,Wunderground v.1.15,2013-04-27 04:15:00,
2013-04-27 00:16:00,32.4,30.1,30.40,N/A,-737280,0.0,-999.0,91,0.00,,,0.00,Wunderground v.1.15,2013-04-27 04:16:00,
2013-04-27 00:21:00,32.4,30.1,30.40,N/A,-737280,0.0,-999.0,91,0.00,,,0.00,Wunderground v.1.15,2013-04-27 04:21:00,
2013-04-27 00:25:00,32.3,30.0,30.41,WSW,244,0.0,0.0,91,0.00,,,0.00,Wunderground v.1.15,2013-04-27 04:25:00,
2013-04-27 00:26:00,32.4,30.1,30.40,N/A,-737280,0.0,-999.0,91,0.00,,,0.00,Wunderground v.1.15,2013-04-27 04:26:00,
2013-04-27 00:30:00,32.4,30.1,30.41,WSW,244,0.0,0.0,91,0.00,,,0.00,Wunderground v.1.15,2013-04-27 04:30:00,
2013-04-27 00:31:00,32.4,30.1,30.40,N/A,-737280,0.0,-999.0,91,0.00,,,0.00,Wunderground v.1.15,2013-04-27 04:31:00,
2013-04-27 00:35:00,32.3,29.7,30.40,WSW,244,0.0,0.0,90,0.00,,,0.00,Wunderground v.1.15,2013-04-27 04:35:00,
2013-04-27 00:36:00,32.4,30.1,30.40,N/A,-737280,0.0,-999.0,91,0.00,,,0.00,Wunderground v.1.15,2013-04-27 04:36:00,
2013-04-27 00:41:00,32.4,30.1,30.40,N/A,-737280,0.0,-999.0,91,0.00,,,0.00,Wunderground v.1.15,2013-04-27 04:41:00,
2013-04-27 00:45:00,31.8,29.2,30.40,WSW,244,0.0,0.0,90,0.00,,,0.00,Wunderground v.1.15,2013-04-27 04:45:00,
2013-04-27 00:46:00,31.2,28.9,30.40,N/A,-737280,0.0,-999.0,91,0.00,,,0.00,Wunderground v.1.15,2013-04-27 04:46:00,
2013-04-27 00:50:00,31.6,29.3,30.40,WSW,244,0.0,0.0,91,0.00,,,0.00,Wunderground v.1.15,2013-04-27 04:50:00,
2013-04-27 00:51:00,31.2,28.9,30.40,N/A,-737280,0.0,-999.0,91,0.00,,,0.00,Wunderground v.1.15,2013-04-27 04:51:00,
2013-04-27 00:55:00,31.4,29.1,30.40,WSW,244,0.0,0.0,91,0.00,,,0.00,Wunderground v.1.15,2013-04-27 04:55:00,
2013-04-27 00:56:00,31.2,28.9,30.40,N/A,-737280,0.0,-999.0,91,0.00,,,0.00,Wunderground v.1.15,2013-04-27 04:56:00,
2013-04-27 01:01:00,31.2,28.9,30.40,N/A,-737280,0.0,-999.0,91,0.00,,,0.00,Wunderground v.1.15,2013-04-27 05:01:00,
2013-04-27 01:06:00,31.2,28.9,30.40,N/A,-737280,0.0,-999.0,91,0.00,,,0.00,Wunderground v.1.15,2013-04-27 05:06:00,
2013-04-27 01:11:00,31.2,28.9,30.40,N/A,-737280,0.0,-999.0,91,0.00,,,0.00,Wunderground v.1.15,2013-04-27 05:11:00,
2013-04-27 01:16:00,30.8,28.8,30.39,N/A,-737280,0.0,-999.0,92,0.00,,,0.00,Wunderground v.1.15,2013-04-27 05:16:00,
2013-04-27 01:21:00,30.8,28.8,30.39,N/A,-737280,0.0,-999.0,92,0.00,,,0.00,Wunderground v.1.15,2013-04-27 05:21:00,
2013-04-27 01:26:00,30.8,28.8,30.39,N/A,-737280,0.0,-999.0,92,0.00,,,0.00,Wunderground v.1.15,2013-04-27 05:26:00,
2013-04-27 01:31:00,30.8,28.8,30.39,N/A,-737280,0.0,-999.0,92,0.00,,,0.00,Wunderground v.1.15,2013-04-27 05:31:00,
2013-04-27 01:36:00,30.8,28.8,30.39,N/A,-737280,0.0,-999.0,92,0.00,,,0.00,Wunderground v.1.15,2013-04-27 05:36:00,
2013-04-27 01:41:00,30.8,28.8,30.39,N/A,-737280,0.0,-999.0,92,0.00,,,0.00,Wunderground v.1.15,2013-04-27 05:41:00,
2013-04-27 01:46:00,31.0,29.2,30.38,N/A,-737280,0.0,-999.0,93,0.00,,,0.00,Wunderground v.1.15,2013-04-27 05:46:00,
2013-04-27 01:51:00,31.0,29.2,30.38,N/A,-737280,0.0,-999.0,93,0.00,,,0.00,Wunderground v.1.15,2013-04-27 05:51:00,
2013-04-27 01:56:00,31.0,29.2,30.38,N/A,-737280,0.0,-999.0,93,0.00,,,0.00,Wunderground v.1.15,2013-04-27 05:56:00,
2013-04-27 02:01:00,31.0,29.2,30.38,N/A,-737280,0.0,-999.0,93,0.00,,,0.00,Wunderground v.1.15,2013-04-27 06:01:00,
2013-04-27 02:06:00,31.0,29.2,30.38,N/A,-737280,0.0,-999.0,93,0.00,,,0.00,Wunderground v.1.15,2013-04-27 06:06:00,
2013-04-27 02:11:00,31.0,29.2,30.38,N/A,-737280,0.0,-999.0,93,0.00,,,0.00,Wunderground v.1.15,2013-04-27 06:11:00,
2013-04-27 02:16:00,30.2,28.2,30.37,N/A,-737280,0.0,-999.0,92,0.00,,,0.00,Wunderground v.1.15,2013-04-27 06:16:00,
2013-04-27 02:21:00,30.2,28.2,30.37,N/A,-737280,0.0,-999.0,92,0.00,,,0.00,Wunderground v.1.15,2013-04-27 06:21:00,
2013-04-27 02:26:00,30.2,28.2,30.37,N/A,-737280,0.0,-999.0,92,0.00,,,0.00,Wunderground v.1.15,2013-04-27 06:26:00,
2013-04-27 02:31:00,30.2,28.2,30.37,N/A,-737280,0.0,-999.0,92,0.00,,,0.00,Wunderground v.1.15,2013-04-27 06:31:00,
2013-04-27 02:36:00,30.2,28.2,30.37,N/A,-737280,0.0,-999.0,92,0.00,,,0.00,Wunderground v.1.15,2013-04-27 06:36:00,
2013-04-27 02:41:00,30.2,28.2,30.37,N/A,-737280,0.0,-999.0,92,0.00,,,0.00,Wunderground v.1.15,2013-04-27 06:41:00,
2013-04-27 02:46:00,30.5,28.7,30.37,N/A,-737280,0.0,-999.0,93,0.00,,,0.00,Wunderground v.1.15,2013-04-27 06:46:00,
2013-04-27 02:51:00,30.5,28.7,30.37,N/A,-737280,0.0,-999.0,93,0.00,,,0.00,Wunderground v.1.15,2013-04-27 06:51:00,
2013-04-27 02:56:00,30.5,28.7,30.37,N/A,-737280,0.0,-999.0,93,0.00,,,0.00,Wunderground v.1.15,2013-04-27 06:56:00,
2013-04-27 03:01:00,30.5,28.7,30.37,N/A,-737280,0.0,-999.0,93,0.00,,,0.00,Wunderground v.1.15,2013-04-27 07:01:00,
2013-04-27 03:06:00,30.5,28.7,30.37,N/A,-737280,0.0,-999.0,93,0.00,,,0.00,Wunderground v.1.15,2013-04-27 07:06:00,
2013-04-27 03:11:00,30.5,28.7,30.37,N/A,-737280,0.0,-999.0,93,0.00,,,0.00,Wunderground v.1.15,2013-04-27 07:11:00,
2013-04-27 03:16:00,29.7,28.2,30.36,N/A,-737280,0.0,-999.0,94,0.00,,,0.00,Wunderground v.1.15,2013-04-27 07:16:00,
2013-04-27 03:21:00,29.7,28.2,30.36,N/A,-737280,0.0,-999.0,94,0.00,,,0.00,Wunderground v.1.15,2013-04-27 07:21:00,
2013-04-27 03:26:00,29.7,28.2,30.36,N/A,-737280,0.0,-999.0,94,0.00,,,0.00,Wunderground v.1.15,2013-04-27 07:26:00,
2013-04-27 03:31:00,29.7,28.2,30.36,N/A,-737280,0.0,-999.0,94,0.00,,,0.00,Wunderground v.1.15,2013-04-27 07:31:00,
2013-04-27 03:36:00,29.7,28.2,30.36,N/A,-737280,0.0,-999.0,94,0.00,,,0.00,Wunderground v.1.15,2013-04-27 07:36:00,
2013-04-27 03:41:00,29.7,28.2,30.36,N/A,-737280,0.0,-999.0,94,0.00,,,0.00,Wunderground v.1.15,2013-04-27 07:41:00,
2013-04-27 03:46:00,29.3,27.5,30.36,N/A,-737280,0.0,-999.0,93,0.00,,,0.00,Wunderground v.1.15,2013-04-27 07:46:00,
2013-04-27 03:51:00,29.3,27.5,30.36,N/A,-737280,0.0,-999.0,93,0.00,,,0.00,Wunderground v.1.15,2013-04-27 07:51:00,
2013-04-27 03:56:00,29.3,27.5,30.36,N/A,-737280,0.0,-999.0,93,0.00,,,0.00,Wunderground v.1.15,2013-04-27 07:56:00,
2013-04-27 04:01:00,29.3,27.5,30.36,N/A,-737280,0.0,-999.0,93,0.00,,,0.00,Wunderground v.1.15,2013-04-27 08:01:00,
2013-04-27 04:06:00,29.3,27.5,30.36,N/A,-737280,0.0,-999.0,93,0.00,,,0.00,Wunderground v.1.15,2013-04-27 08:06:00,
2013-04-27 04:11:00,29.3,27.5,30.36,N/A,-737280,0.0,-999.0,93,0.00,,,0.00,Wunderground v.1.15,2013-04-27 08:11:00,
2013-04-27 04:16:00,29.6,28.1,30.35,N/A,-737280,0.0,-999.0,94,0.00,,,0.00,Wunderground v.1.15,2013-04-27 08:16:00,
2013-04-27 04:21:00,29.6,28.1,30.35,N/A,-737280,0.0,-999.0,94,0.00,,,0.00,Wunderground v.1.15,2013-04-27 08:21:00,
2013-04-27 04:26:00,29.6,28.1,30.35,N/A,-737280,0.0,-999.0,94,0.00,,,0.00,Wunderground v.1.15,2013-04-27 08:26:00,
2013-04-27 04:31:00,29.6,28.1,30.35,N/A,-737280,0.0,-999.0,94,0.00,,,0.00,Wunderground v.1.15,2013-04-27 08:31:00,
2013-04-27 04:36:00,29.6,28.1,30.35,N/A,-737280,0.0,-999.0,94,0.00,,,0.00,Wunderground v.1.15,2013-04-27 08:36:00,
2013-04-27 04:41:00,29.6,28.1,30.35,N/A,-737280,0.0,-999.0,94,0.00,,,0.00,Wunderground v.1.15,2013-04-27 08:41:00,
2013-04-27 04:46:00,29.7,28.2,30.35,N/A,-737280,0.0,-999.0,94,0.00,,,0.00,Wunderground v.1.15,2013-04-27 08:46:00,
2013-04-27 04:51:00,29.7,28.2,30.35,N/A,-737280,0.0,-999.0,94,0.00,,,0.00,Wunderground v.1.15,2013-04-27 08:51:00,
2013-04-27 04:56:00,29.7,28.2,30.35,N/A,-737280,0.0,-999.0,94,0.00,,,0.00,Wunderground v.1.15,2013-04-27 08:56:00,
2013-04-27 05:01:00,29.7,28.2,30.35,N/A,-737280,0.0,-999.0,94,0.00,,,0.00,Wunderground v.1.15,2013-04-27 09:01:00,
2013-04-27 05:06:00,29.7,28.2,30.35,N/A,-737280,0.0,-999.0,94,0.00,,,0.00,Wunderground v.1.15,2013-04-27 09:06:00,
2013-04-27 05:11:00,29.7,28.2,30.35,N/A,-737280,0.0,-999.0,94,0.00,,,0.00,Wunderground v.1.15,2013-04-27 09:11:00,
2013-04-27 05:16:00,29.9,28.4,30.36,WSW,248,0.0,-999.0,94,0.00,,,0.00,Wunderground v.1.15,2013-04-27 09:16:00,
2013-04-27 05:21:00,29.9,28.4,30.36,WSW,248,0.0,-999.0,94,0.00,,,0.00,Wunderground v.1.15,2013-04-27 09:21:00,
2013-04-27 05:26:00,29.9,28.4,30.36,WSW,248,0.0,-999.0,94,0.00,,,0.00,Wunderground v.1.15,2013-04-27 09:26:00,
2013-04-27 05:31:00,29.9,28.4,30.36,WSW,248,0.0,-999.0,94,0.00,,,0.00,Wunderground v.1.15,2013-04-27 09:31:00,
2013-04-27 05:36:00,29.9,28.4,30.36,WSW,248,0.0,-999.0,94,0.00,,,0.00,Wunderground v.1.15,2013-04-27 09:36:00,
2013-04-27 05:41:00,29.9,28.4,30.36,WSW,248,0.0,-999.0,94,0.00,,,0.00,Wunderground v.1.15,2013-04-27 09:41:00,
2013-04-27 05:46:00,29.6,28.1,30.36,N/A,-737280,0.0,-999.0,94,0.00,,,0.00,Wunderground v.1.15,2013-04-27 09:46:00,
2013-04-27 05:51:00,29.6,28.1,30.36,N/A,-737280,0.0,-999.0,94,0.00,,,0.00,Wunderground v.1.15,2013-04-27 09:51:00,
2013-04-27 05:56:00,29.6,28.1,30.36,N/A,-737280,0.0,-999.0,94,0.00,,,0.00,Wunderground v.1.15,2013-04-27 09:56:00,
2013-04-27 06:01:00,29.6,28.1,30.36,N/A,-737280,0.0,-999.0,94,0.00,,,0.00,Wunderground v.1.15,2013-04-27 10:01:00,
2013-04-27 06:06:00,29.6,28.1,30.36,N/A,-737280,0.0,-999.0,94,0.00,,,0.00,Wunderground v.1.15,2013-04-27 10:06:00,
2013-04-27 06:11:00,29.6,28.1,30.36,N/A,-737280,0.0,-999.0,94,0.00,,,0.00,Wunderground v.1.15,2013-04-27 10:11:00,
2013-04-27 06:16:00,29.8,28.5,30.37,West,270,0.0,-999.0,95,0.00,,,0.00,Wunderground v.1.15,2013-04-27 10:16:00,
2013-04-27 06:21:00,29.8,28.5,30.37,West,270,0.0,-999.0,95,0.00,,,0.00,Wunderground v.1.15,2013-04-27 10:21:00,
2013-04-27 06:26:00,29.8,28.5,30.37,West,270,0.0,-999.0,95,0.00,,,0.00,Wunderground v.1.15,2013-04-27 10:26:00,
2013-04-27 06:31:00,29.8,28.5,30.37,West,270,0.0,-999.0,95,0.00,,,0.00,Wunderground v.1.15,2013-04-27 10:31:00,
2013-04-27 06:36:00,29.8,28.5,30.37,West,270,0.0,-999.0,95,0.00,,,0.00,Wunderground v.1.15,2013-04-27 10:36:00,
2013-04-27 06:41:00,29.8,28.5,30.37,West,270,0.0,-999.0,95,0.00,,,0.00,Wunderground v.1.15,2013-04-27 10:41:00,
2013-04-27 06:46:00,31.5,30.2,30.37,N/A,-737280,0.0,-999.0,95,0.00,,,0.00,Wunderground v.1.15,2013-04-27 10:46:00,
2013-04-27 06:51:00,31.5,30.2,30.37,N/A,-737280,0.0,-999.0,95,0.00,,,0.00,Wunderground v.1.15,2013-04-27 10:51:00,
2013-04-27 06:56:00,31.5,30.2,30.37,N/A,-737280,0.0,-999.0,95,0.00,,,0.00,Wunderground v.1.15,2013-04-27 10:56:00,
2013-04-27 07:01:00,31.5,30.2,30.37,N/A,-737280,0.0,-999.0,95,0.00,,,0.00,Wunderground v.1.15,2013-04-27 11:01:00,
2013-04-27 07:06:00,31.5,30.2,30.37,N/A,-737280,0.0,-999.0,95,0.00,,,0.00,Wunderground v.1.15,2013-04-27 11:06:00,
2013-04-27 07:11:00,31.5,30.2,30.37,N/A,-737280,0.0,-999.0,95,0.00,,,0.00,Wunderground v.1.15,2013-04-27 11:11:00,
2013-04-27 07:16:00,35.8,34.2,30.37,N/A,-737280,0.0,-999.0,94,0.00,,,0.00,Wunderground v.1.15,2013-04-27 11:16:00,
2013-04-27 07:21:00,35.8,34.2,30.37,N/A,-737280,0.0,-999.0,94,0.00,,,0.00,Wunderground v.1.15,2013-04-27 11:21:00,
2013-04-27 07:26:00,35.8,34.2,30.37,N/A,-737280,0.0,-999.0,94,0.00,,,0.00,Wunderground v.1.15,2013-04-27 11:26:00,
2013-04-27 07:31:00,35.8,34.2,30.37,N/A,-737280,0.0,-999.0,94,0.00,,,0.00,Wunderground v.1.15,2013-04-27 11:31:00,
2013-04-27 07:36:00,35.8,34.2,30.37,N/A,-737280,0.0,-999.0,94,0.00,,,0.00,Wunderground v.1.15,2013-04-27 11:36:00,
2013-04-27 07:41:00,35.8,34.2,30.37,N/A,-737280,0.0,-999.0,94,0.00,,,0.00,Wunderground v.1.15,2013-04-27 11:41:00,
2013-04-27 07:46:00,42.7,33.9,30.37,West,270,0.0,-999.0,71,0.00,,,0.00,Wunderground v.1.15,2013-04-27 11:46:00,
2013-04-27 07:51:00,42.7,33.9,30.37,West,270,0.0,-999.0,71,0.00,,,0.00,Wunderground v.1.15,2013-04-27 11:51:00,
2013-04-27 07:56:00,42.7,33.9,30.37,West,270,0.0,-999.0,71,0.00,,,0.00,Wunderground v.1.15,2013-04-27 11:56:00,
2013-04-27 08:01:00,42.7,33.9,30.37,West,270,0.0,-999.0,71,0.00,,,0.00,Wunderground v.1.15,2013-04-27 12:01:00,
2013-04-27 08:06:00,42.7,33.9,30.37,West,270,0.0,-999.0,71,0.00,,,0.00,Wunderground v.1.15,2013-04-27 12:06:00,
2013-04-27 08:11:00,42.7,33.9,30.37,West,270,0.0,-999.0,71,0.00,,,0.00,Wunderground v.1.15,2013-04-27 12:11:00,
2013-04-27 08:16:00,46.5,34.6,30.38,SW,225,0.0,-999.0,63,0.00,,,0.00,Wunderground v.1.15,2013-04-27 12:16:00,
2013-04-27 08:21:00,46.5,34.6,30.38,SW,225,0.0,-999.0,63,0.00,,,0.00,Wunderground v.1.15,2013-04-27 12:21:00,
2013-04-27 08:26:00,46.5,34.6,30.38,SW,225,0.0,-999.0,63,0.00,,,0.00,Wunderground v.1.15,2013-04-27 12:26:00,
2013-04-27 08:31:00,46.5,34.6,30.38,SW,225,0.0,-999.0,63,0.00,,,0.00,Wunderground v.1.15,2013-04-27 12:31:00,
2013-04-27 08:36:00,46.5,34.6,30.38,SW,225,0.0,-999.0,63,0.00,,,0.00,Wunderground v.1.15,2013-04-27 12:36:00,
2013-04-27 08:41:00,46.5,34.6,30.38,SW,225,0.0,-999.0,63,0.00,,,0.00,Wunderground v.1.15,2013-04-27 12:41:00,
2013-04-27 08:46:00,46.7,35.2,30.38,WSW,248,1.0,-999.0,64,0.00,,,0.00,Wunderground v.1.15,2013-04-27 12:46:00,
2013-04-27 08:51:00,46.7,35.2,30.38,WSW,248,1.0,-999.0,64,0.00,,,0.00,Wunderground v.1.15,2013-04-27 12:51:00,
2013-04-27 08:56:00,46.7,35.2,30.38,WSW,248,1.0,-999.0,64,0.00,,,0.00,Wunderground v.1.15,2013-04-27 12:56:00,
2013-04-27 09:01:00,46.7,35.2,30.38,WSW,248,1.0,-999.0,64,0.00,,,0.00,Wunderground v.1.15,2013-04-27 13:01:00,
2013-04-27 09:06:00,46.7,35.2,30.38,WSW,248,1.0,-999.0,64,0.00,,,0.00,Wunderground v.1.15,2013-04-27 13:06:00,
2013-04-27 09:11:00,46.7,35.2,30.38,WSW,248,1.0,-999.0,64,0.00,,,0.00,Wunderground v.1.15,2013-04-27 13:11:00,
2013-04-27 09:16:00,47.8,35.0,30.39,WSW,248,0.0,-999.0,61,0.00,,,0.00,Wunderground v.1.15,2013-04-27 13:16:00,
2013-04-27 09:21:00,47.8,35.0,30.39,WSW,248,0.0,-999.0,61,0.00,,,0.00,Wunderground v.1.15,2013-04-27 13:21:00,
2013-04-27 09:26:00,47.8,35.0,30.39,WSW,248,0.0,-999.0,61,0.00,,,0.00,Wunderground v.1.15,2013-04-27 13:26:00,
2013-04-27 09:31:00,47.8,35.0,30.39,WSW,248,0.0,-999.0,61,0.00,,,0.00,Wunderground v.1.15,2013-04-27 13:31:00,
2013-04-27 09:36:00,47.8,35.0,30.39,WSW,248,0.0,-999.0,61,0.00,,,0.00,Wunderground v.1.15,2013-04-27 13:36:00,
2013-04-27 09:41:00,47.8,35.0,30.39,WSW,248,0.0,-999.0,61,0.00,,,0.00,Wunderground v.1.15,2013-04-27 13:41:00,
2013-04-27 09:46:00,50.4,35.7,30.38,WSW,248,1.0,-999.0,57,0.00,,,0.00,Wunderground v.1.15,2013-04-27 13:46:00,
2013-04-27 09:51:00,50.4,35.7,30.38,WSW,248,1.0,-999.0,57,0.00,,,0.00,Wunderground v.1.15,2013-04-27 13:51:00,
2013-04-27 09:56:00,50.4,35.7,30.38,WSW,248,1.0,-999.0,57,0.00,,,0.00,Wunderground v.1.15,2013-04-27 13:56:00,
2013-04-27 10:00:00,50.5,36.7,30.38,WSW,255,1.0,2.0,59,0.00,,,0.00,Wunderground v.1.15,2013-04-27 14:00:00,
2013-04-27 10:01:00,50.4,35.7,30.38,WSW,248,1.0,-999.0,57,0.00,,,0.00,Wunderground v.1.15,2013-04-27 14:01:00,
2013-04-27 10:05:00,50.6,37.6,30.38,WSW,255,1.0,2.0,61,0.00,,,0.00,Wunderground v.1.15,2013-04-27 14:05:00,
2013-04-27 10:06:00,50.4,35.7,30.38,WSW,248,1.0,-999.0,57,0.00,,,0.00,Wunderground v.1.15,2013-04-27 14:06:00,
2013-04-27 10:09:00,50.9,36.6,30.38,West,259,1.0,4.0,58,0.00,,,0.00,Wunderground v.1.15,2013-04-27 14:09:00,
2013-04-27 10:11:00,50.4,35.7,30.38,WSW,248,1.0,-999.0,57,0.00,,,0.00,Wunderground v.1.15,2013-04-27 14:11:00,
2013-04-27 10:16:00,52.3,36.1,30.38,NE,45,1.0,-999.0,54,0.00,,,0.00,Wunderground v.1.15,2013-04-27 14:16:00,
2013-04-27 10:21:00,52.3,36.1,30.38,NE,45,1.0,-999.0,54,0.00,,,0.00,Wunderground v.1.15,2013-04-27 14:21:00,
2013-04-27 10:26:00,52.3,36.1,30.38,NE,45,1.0,-999.0,54,0.00,,,0.00,Wunderground v.1.15,2013-04-27 14:26:00,
2013-04-27 10:31:00,52.3,36.1,30.38,NE,45,1.0,-999.0,54,0.00,,,0.00,Wunderground v.1.15,2013-04-27 14:31:00,
2013-04-27 10:36:00,52.3,36.1,30.38,NE,45,1.0,-999.0,54,0.00,,,0.00,Wunderground v.1.15,2013-04-27 14:36:00,
2013-04-27 10:41:00,52.3,36.1,30.38,NE,45,1.0,-999.0,54,0.00,,,0.00,Wunderground v.1.15,2013-04-27 14:41:00,
2013-04-27 10:46:00,53.5,35.3,30.38,East,90,1.0,-999.0,50,0.00,,,0.00,Wunderground v.1.15,2013-04-27 14:46:00,
2013-04-27 10:51:00,53.5,35.3,30.38,East,90,1.0,-999.0,50,0.00,,,0.00,Wunderground v.1.15,2013-04-27 14:51:00,
2013-04-27 10:56:00,53.5,35.3,30.38,East,90,1.0,-999.0,50,0.00,,,0.00,Wunderground v.1.15,2013-04-27 14:56:00,
2013-04-27 11:01:00,53.5,35.3,30.38,East,90,1.0,-999.0,50,0.00,,,0.00,Wunderground v.1.15,2013-04-27 15:01:00,
2013-04-27 11:06:00,53.5,35.3,30.38,East,90,1.0,-999.0,50,0.00,,,0.00,Wunderground v.1.15,2013-04-27 15:06:00,
2013-04-27 11:11:00,53.5,35.3,30.38,East,90,1.0,-999.0,50,0.00,,,0.00,Wunderground v.1.15,2013-04-27 15:11:00,
2013-04-27 11:16:00,53.9,34.1,30.38,NW,315,1.0,-999.0,47,0.00,,,0.00,Wunderground v.1.15,2013-04-27 15:16:00,
2013-04-27 11:21:00,53.9,34.1,30.38,NW,315,1.0,-999.0,47,0.00,,,0.00,Wunderground v.1.15,2013-04-27 15:21:00,
2013-04-27 11:26:00,53.9,34.1,30.38,NW,315,1.0,-999.0,47,0.00,,,0.00,Wunderground v.1.15,2013-04-27 15:26:00,
2013-04-27 11:31:00,53.9,34.1,30.38,NW,315,1.0,-999.0,47,0.00,,,0.00,Wunderground v.1.15,2013-04-27 15:31:00,
2013-04-27 11:36:00,53.9,34.1,30.38,NW,315,1.0,-999.0,47,0.00,,,0.00,Wunderground v.1.15,2013-04-27 15:36:00,
2013-04-27 11:41:00,53.9,34.1,30.38,NW,315,1.0,-999.0,47,0.00,,,0.00,Wunderground v.1.15,2013-04-27 15:41:00,
2013-04-27 11:46:00,54.8,32.1,30.38,ENE,68,1.0,-999.0,42,0.00,,,0.00,Wunderground v.1.15,2013-04-27 15:46:00,
2013-04-27 11:51:00,54.8,32.1,30.38,ENE,68,1.0,-999.0,42,0.00,,,0.00,Wunderground v.1.15,2013-04-27 15:51:00,
2013-04-27 11:56:00,54.8,32.1,30.38,ENE,68,1.0,-999.0,42,0.00,,,0.00,Wunderground v.1.15,2013-04-27 15:56:00,
2013-04-27 12:01:00,54.8,32.1,30.38,ENE,68,1.0,-999.0,42,0.00,,,0.00,Wunderground v.1.15,2013-04-27 16:01:00,
2013-04-27 12:06:00,54.8,32.1,30.38,ENE,68,1.0,-999.0,42,0.00,,,0.00,Wunderground v.1.15,2013-04-27 16:06:00,
2013-04-27 12:11:00,54.8,32.1,30.38,ENE,68,1.0,-999.0,42,0.00,,,0.00,Wunderground v.1.15,2013-04-27 16:11:00,
2013-04-27 12:16:00,56.4,33.6,30.37,ENE,68,1.0,-999.0,42,0.00,,,0.00,Wunderground v.1.15,2013-04-27 16:16:00,
2013-04-27 12:21:00,56.4,33.6,30.37,ENE,68,1.0,-999.0,42,0.00,,,0.00,Wunderground v.1.15,2013-04-27 16:21:00,
2013-04-27 12:26:00,56.4,33.6,30.37,ENE,68,1.0,-999.0,42,0.00,,,0.00,Wunderground v.1.15,2013-04-27 16:26:00,
2013-04-27 12:31:00,56.4,33.6,30.37,ENE,68,1.0,-999.0,42,0.00,,,0.00,Wunderground v.1.15,2013-04-27 16:31:00,
2013-04-27 12:36:00,56.4,33.6,30.37,ENE,68,1.0,-999.0,42,0.00,,,0.00,Wunderground v.1.15,2013-04-27 16:36:00,
2013-04-27 12:41:00,56.4,33.6,30.37,ENE,68,1.0,-999.0,42,0.00,,,0.00,Wunderground v.1.15,2013-04-27 16:41:00,
2013-04-27 12:46:00,58.4,38.8,30.36,WNW,293,2.0,-999.0,48,0.00,,,0.00,Wunderground v.1.15,2013-04-27 16:46:00,
2013-04-27 12:51:00,58.4,38.8,30.36,WNW,293,2.0,-999.0,48,0.00,,,0.00,Wunderground v.1.15,2013-04-27 16:51:00,
2013-04-27 12:56:00,58.4,38.8,30.36,WNW,293,2.0,-999.0,48,0.00,,,0.00,Wunderground v.1.15,2013-04-27 16:56:00,
2013-04-27 13:01:00,58.4,38.8,30.36,WNW,293,2.0,-999.0,48,0.00,,,0.00,Wunderground v.1.15,2013-04-27 17:01:00,
2013-04-27 13:06:00,58.4,38.8,30.36,WNW,293,2.0,-999.0,48,0.00,,,0.00,Wunderground v.1.15,2013-04-27 17:06:00,
2013-04-27 13:11:00,58.4,38.8,30.36,WNW,293,2.0,-999.0,48,0.00,,,0.00,Wunderground v.1.15,2013-04-27 17:11:00,
2013-04-27 13:21:00,57.8,33.6,30.34,WNW,293,1.0,-999.0,40,0.00,,,0.00,Wunderground v.1.15,2013-04-27 17:21:00,
2013-04-27 13:26:00,57.8,33.6,30.34,WNW,293,1.0,-999.0,40,0.00,,,0.00,Wunderground v.1.15,2013-04-27 17:26:00,
2013-04-27 13:31:00,57.8,33.6,30.34,WNW,293,1.0,-999.0,40,0.00,,,0.00,Wunderground v.1.15,2013-04-27 17:31:00,
2013-04-27 13:36:00,57.8,33.6,30.34,WNW,293,1.0,-999.0,40,0.00,,,0.00,Wunderground v.1.15,2013-04-27 17:36:00,
2013-04-27 13:41:00,57.8,33.6,30.34,WNW,293,1.0,-999.0,40,0.00,,,0.00,Wunderground v.1.15,2013-04-27 17:41:00,
2013-04-27 13:46:00,59.2,34.9,30.33,WNW,293,1.0,-999.0,40,0.00,,,0.00,Wunderground v.1.15,2013-04-27 17:46:00,
2013-04-27 13:51:00,59.2,34.9,30.33,WNW,293,1.0,-999.0,40,0.00,,,0.00,Wunderground v.1.15,2013-04-27 17:51:00,
2013-04-27 13:56:00,59.2,34.9,30.33,WNW,293,1.0,-999.0,40,0.00,,,0.00,Wunderground v.1.15,2013-04-27 17:56:00,
2013-04-27 14:01:00,59.2,34.9,30.33,WNW,293,1.0,-999.0,40,0.00,,,0.00,Wunderground v.1.15,2013-04-27 18:01:00,
2013-04-27 14:06:00,59.2,34.9,30.33,WNW,293,1.0,-999.0,40,0.00,,,0.00,Wunderground v.1.15,2013-04-27 18:06:00,
2013-04-27 14:11:00,59.2,34.9,30.33,WNW,293,1.0,-999.0,40,0.00,,,0.00,Wunderground v.1.15,2013-04-27 18:11:00,
2013-04-27 14:16:00,59.3,36.2,30.31,NW,315,1.0,-999.0,42,0.00,,,0.00,Wunderground v.1.15,2013-04-27 18:16:00,
2013-04-27 14:21:00,59.3,36.2,30.31,NW,315,1.0,-999.0,42,0.00,,,0.00,Wunderground v.1.15,2013-04-27 18:21:00,
2013-04-27 14:26:00,59.3,36.2,30.31,NW,315,1.0,-999.0,42,0.00,,,0.00,Wunderground v.1.15,2013-04-27 18:26:00,
2013-04-27 14:31:00,59.3,36.2,30.31,NW,315,1.0,-999.0,42,0.00,,,0.00,Wunderground v.1.15,2013-04-27 18:31:00,
2013-04-27 14:36:00,59.3,36.2,30.31,NW,315,1.0,-999.0,42,0.00,,,0.00,Wunderground v.1.15,2013-04-27 18:36:00,
2013-04-27 14:41:00,59.3,36.2,30.31,NW,315,1.0,-999.0,42,0.00,,,0.00,Wunderground v.1.15,2013-04-27 18:41:00,
2013-04-27 14:46:00,60.4,37.2,30.29,NW,315,1.0,-999.0,42,0.00,,,0.00,Wunderground v.1.15,2013-04-27 18:46:00,
2013-04-27 14:51:00,60.4,37.2,30.29,NW,315,1.0,-999.0,42,0.00,,,0.00,Wunderground v.1.15,2013-04-27 18:51:00,
2013-04-27 14:56:00,60.4,37.2,30.29,NW,315,1.0,-999.0,42,0.00,,,0.00,Wunderground v.1.15,2013-04-27 18:56:00,
2013-04-27 15:01:00,60.4,37.2,30.29,NW,315,1.0,-999.0,42,0.00,,,0.00,Wunderground v.1.15,2013-04-27 19:01:00,
2013-04-27 15:06:00,60.4,37.2,30.29,NW,315,1.0,-999.0,42,0.00,,,0.00,Wunderground v.1.15,2013-04-27 19:06:00,
2013-04-27 15:11:00,60.4,37.2,30.29,NW,315,1.0,-999.0,42,0.00,,,0.00,Wunderground v.1.15,2013-04-27 19:11:00,
2013-04-27 15:16:00,61.3,35.5,30.28,NW,315,1.0,-999.0,38,0.00,,,0.00,Wunderground v.1.15,2013-04-27 19:16:00,
2013-04-27 15:21:00,61.3,35.5,30.28,NW,315,1.0,-999.0,38,0.00,,,0.00,Wunderground v.1.15,2013-04-27 19:21:00,
2013-04-27 15:26:00,61.3,35.5,30.28,NW,315,1.0,-999.0,38,0.00,,,0.00,Wunderground v.1.15,2013-04-27 19:26:00,
2013-04-27 15:31:00,61.3,35.5,30.28,NW,315,1.0,-999.0,38,0.00,,,0.00,Wunderground v.1.15,2013-04-27 19:31:00,
2013-04-27 15:36:00,61.3,35.5,30.28,NW,315,1.0,-999.0,38,0.00,,,0.00,Wunderground v.1.15,2013-04-27 19:36:00,
2013-04-27 15:41:00,61.3,35.5,30.28,NW,315,1.0,-999.0,38,0.00,,,0.00,Wunderground v.1.15,2013-04-27 19:41:00,
2013-04-27 15:46:00,60.0,34.3,30.27,NNW,338,1.0,-999.0,38,0.00,,,0.00,Wunderground v.1.15,2013-04-27 19:46:00,
2013-04-27 15:51:00,60.0,34.3,30.27,NNW,338,1.0,-999.0,38,0.00,,,0.00,Wunderground v.1.15,2013-04-27 19:51:00,
2013-04-27 15:56:00,60.0,34.3,30.27,NNW,338,1.0,-999.0,38,0.00,,,0.00,Wunderground v.1.15,2013-04-27 19:56:00,
2013-04-27 16:01:00,60.0,34.3,30.27,NNW,338,1.0,-999.0,38,0.00,,,0.00,Wunderground v.1.15,2013-04-27 20:01:00,
2013-04-27 16:06:00,60.0,34.3,30.27,NNW,338,1.0,-999.0,38,0.00,,,0.00,Wunderground v.1.15,2013-04-27 20:06:00,
2013-04-27 16:11:00,60.0,34.3,30.27,NNW,338,1.0,-999.0,38,0.00,,,0.00,Wunderground v.1.15,2013-04-27 20:11:00,
2013-04-27 16:16:00,61.5,35.6,30.26,NNE,23,0.0,-999.0,38,0.00,,,0.00,Wunderground v.1.15,2013-04-27 20:16:00,
2013-04-27 16:21:00,61.5,35.6,30.26,NNE,23,0.0,-999.0,38,0.00,,,0.00,Wunderground v.1.15,2013-04-27 20:21:00,
2013-04-27 16:26:00,61.5,35.6,30.26,NNE,23,0.0,-999.0,38,0.00,,,0.00,Wunderground v.1.15,2013-04-27 20:26:00,
2013-04-27 16:31:00,61.5,35.6,30.26,NNE,23,0.0,-999.0,38,0.00,,,0.00,Wunderground v.1.15,2013-04-27 20:31:00,
2013-04-27 16:36:00,61.5,35.6,30.26,NNE,23,0.0,-999.0,38,0.00,,,0.00,Wunderground v.1.15,2013-04-27 20:36:00,
2013-04-27 16:41:00,61.5,35.6,30.26,NNE,23,0.0,-999.0,38,0.00,,,0.00,Wunderground v.1.15,2013-04-27 20:41:00,
2013-04-27 16:46:00,62.0,41.0,30.25,West,270,1.0,-999.0,46,0.00,,,0.00,Wunderground v.1.15,2013-04-27 20:46:00,
2013-04-27 16:51:00,62.0,41.0,30.25,West,270,1.0,-999.0,46,0.00,,,0.00,Wunderground v.1.15,2013-04-27 20:51:00,
2013-04-27 16:56:00,62.0,41.0,30.25,West,270,1.0,-999.0,46,0.00,,,0.00,Wunderground v.1.15,2013-04-27 20:56:00,
2013-04-27 17:01:00,62.0,41.0,30.25,West,270,1.0,-999.0,46,0.00,,,0.00,Wunderground v.1.15,2013-04-27 21:01:00,
2013-04-27 17:06:00,62.0,41.0,30.25,West,270,1.0,-999.0,46,0.00,,,0.00,Wunderground v.1.15,2013-04-27 21:06:00,
2013-04-27 17:11:00,62.0,41.0,30.25,West,270,1.0,-999.0,46,0.00,,,0.00,Wunderground v.1.15,2013-04-27 21:11:00,
2013-04-27 17:16:00,62.4,37.7,30.24,NE,45,1.0,-999.0,40,0.00,,,0.00,Wunderground v.1.15,2013-04-27 21:16:00,
2013-04-27 17:21:00,62.4,37.7,30.24,NE,45,1.0,-999.0,40,0.00,,,0.00,Wunderground v.1.15,2013-04-27 21:21:00,
2013-04-27 17:25:00,62.2,38.2,30.25,NNE,25,0.0,5.0,41,0.00,,,0.00,Wunderground v.1.15,2013-04-27 21:25:00,
2013-04-27 17:26:00,62.4,37.7,30.24,NE,45,1.0,-999.0,40,0.00,,,0.00,Wunderground v.1.15,2013-04-27 21:26:00,
2013-04-27 17:30:00,62.4,38.4,30.25,NNE,25,0.0,5.0,41,0.00,,,0.00,Wunderground v.1.15,2013-04-27 21:30:00,
2013-04-27 17:31:00,62.4,37.7,30.24,NE,45,1.0,-999.0,40,0.00,,,0.00,Wunderground v.1.15,2013-04-27 21:31:00,
2013-04-27 17:35:00,61.9,37.3,30.24,NNE,25,1.0,1.0,40,0.00,,,0.00,Wunderground v.1.15,2013-04-27 21:35:00,
2013-04-27 17:36:00,62.4,37.7,30.24,NE,45,1.0,-999.0,40,0.00,,,0.00,Wunderground v.1.15,2013-04-27 21:36:00,
2013-04-27 17:41:00,62.4,37.7,30.24,NE,45,1.0,-999.0,40,0.00,,,0.00,Wunderground v.1.15,2013-04-27 21:41:00,
2013-04-27 17:45:00,61.7,37.1,30.24,NNE,25,0.0,0.0,40,0.00,,,0.00,Wunderground v.1.15,2013-04-27 21:45:00,
2013-04-27 17:46:00,61.3,36.8,30.25,NNE,23,1.0,-999.0,40,0.00,,,0.00,Wunderground v.1.15,2013-04-27 21:46:00,
2013-04-27 17:50:00,61.6,39.5,30.25,NNE,20,1.0,1.0,44,0.00,,,0.00,Wunderground v.1.15,2013-04-27 21:50:00,
2013-04-27 17:51:00,61.3,36.8,30.25,NNE,23,1.0,-999.0,40,0.00,,,0.00,Wunderground v.1.15,2013-04-27 21:51:00,
2013-04-27 17:55:00,61.2,36.7,30.25,NNE,20,1.0,1.0,40,0.00,,,0.00,Wunderground v.1.15,2013-04-27 21:55:00,
2013-04-27 17:56:00,61.3,36.8,30.25,NNE,23,1.0,-999.0,40,0.00,,,0.00,Wunderground v.1.15,2013-04-27 21:56:00,
2013-04-27 18:01:00,61.3,36.8,30.25,NNE,23,1.0,-999.0,40,0.00,,,0.00,Wunderground v.1.15,2013-04-27 22:01:00,
2013-04-27 18:05:00,61.2,36.7,30.25,NNE,20,1.0,1.0,40,0.00,,,0.00,Wunderground v.1.15,2013-04-27 22:05:00,
2013-04-27 18:06:00,61.3,36.8,30.25,NNE,23,1.0,-999.0,40,0.00,,,0.00,Wunderground v.1.15,2013-04-27 22:06:00,
2013-04-27 18:11:00,61.3,36.8,30.25,NNE,23,1.0,-999.0,40,0.00,,,0.00,Wunderground v.1.15,2013-04-27 22:11:00,
2013-04-27 18:15:00,61.0,37.7,30.25,NNE,20,1.0,1.0,42,0.00,,,0.00,Wunderground v.1.15,2013-04-27 22:15:00,
2013-04-27 18:16:00,59.3,39.6,30.25,NNE,23,1.0,-999.0,48,0.00,,,0.00,Wunderground v.1.15,2013-04-27 22:16:00,
2013-04-27 18:20:00,60.5,38.5,30.25,NE,37,1.0,1.0,44,0.00,,,0.00,Wunderground v.1.15,2013-04-27 22:20:00,
2013-04-27 18:21:00,59.3,39.6,30.25,NNE,23,1.0,-999.0,48,0.00,,,0.00,Wunderground v.1.15,2013-04-27 22:21:00,
2013-04-27 18:26:00,59.3,39.6,30.25,NNE,23,1.0,-999.0,48,0.00,,,0.00,Wunderground v.1.15,2013-04-27 22:26:00,
2013-04-27 18:30:00,59.6,38.8,30.25,East,80,0.0,0.0,46,0.00,,,0.00,Wunderground v.1.15,2013-04-27 22:30:00,
2013-04-27 18:31:00,59.3,39.6,30.25,NNE,23,1.0,-999.0,48,0.00,,,0.00,Wunderground v.1.15,2013-04-27 22:31:00,
2013-04-27 18:35:00,58.7,39.0,30.25,East,80,0.0,0.0,48,0.00,,,0.00,Wunderground v.1.15,2013-04-27 22:35:00,
2013-04-27 18:36:00,59.3,39.6,30.25,NNE,23,1.0,-999.0,48,0.00,,,0.00,Wunderground v.1.15,2013-04-27 22:36:00,
2013-04-27 18:40:00,58.4,39.8,30.25,East,80,0.0,0.0,50,0.00,,,0.00,Wunderground v.1.15,2013-04-27 22:40:00,
2013-04-27 18:41:00,59.3,39.6,30.25,NNE,23,1.0,-999.0,48,0.00,,,0.00,Wunderground v.1.15,2013-04-27 22:41:00,
2013-04-27 18:46:00,58.7,40.6,30.25,East,90,0.0,-999.0,51,0.00,,,0.00,Wunderground v.1.15,2013-04-27 22:46:00,
2013-04-27 18:50:00,58.5,40.4,30.25,East,80,0.0,0.0,51,0.00,,,0.00,Wunderground v.1.15,2013-04-27 22:50:00,
2013-04-27 18:51:00,58.7,40.6,30.25,East,90,0.0,-999.0,51,0.00,,,0.00,Wunderground v.1.15,2013-04-27 22:51:00,
2013-04-27 18:55:00,58.6,40.5,30.25,East,80,0.0,0.0,51,0.00,,,0.00,Wunderground v.1.15,2013-04-27 22:55:00,
2013-04-27 18:56:00,58.7,40.6,30.25,East,90,0.0,-999.0,51,0.00,,,0.00,Wunderground v.1.15,2013-04-27 22:56:00,
2013-04-27 19:01:00,58.7,40.6,30.25,East,90,0.0,-999.0,51,0.00,,,0.00,Wunderground v.1.15,2013-04-27 23:01:00,
2013-04-27 19:05:00,58.6,40.5,30.25,East,80,0.0,0.0,51,0.00,,,0.00,Wunderground v.1.15,2013-04-27 23:05:00,
2013-04-27 19:06:00,58.7,40.6,30.25,East,90,0.0,-999.0,51,0.00,,,0.00,Wunderground v.1.15,2013-04-27 23:06:00,
2013-04-27 19:11:00,58.7,40.6,30.25,East,90,0.0,-999.0,51,0.00,,,0.00,Wunderground v.1.15,2013-04-27 23:11:00,
2013-04-27 19:15:00,57.5,41.0,30.25,East,80,0.0,0.0,54,0.00,,,0.00,Wunderground v.1.15,2013-04-27 23:15:00,
2013-04-27 19:16:00,56.3,40.8,30.23,East,90,0.0,-999.0,56,0.00,,,0.00,Wunderground v.1.15,2013-04-27 23:16:00,
2013-04-27 19:20:00,57.4,40.9,30.23,East,80,0.0,0.0,54,0.00,,,0.00,Wunderground v.1.15,2013-04-27 23:20:00,
2013-04-27 19:21:00,56.3,40.8,30.23,East,90,0.0,-999.0,56,0.00,,,0.00,Wunderground v.1.15,2013-04-27 23:21:00,
2013-04-27 19:25:00,56.9,40.9,30.23,East,80,0.0,0.0,55,0.00,,,0.00,Wunderground v.1.15,2013-04-27 23:25:00,
2013-04-27 19:26:00,56.3,40.8,30.23,East,90,0.0,-999.0,56,0.00,,,0.00,Wunderground v.1.15,2013-04-27 23:26:00,
2013-04-27 19:31:00,56.3,40.8,30.23,East,90,0.0,-999.0,56,0.00,,,0.00,Wunderground v.1.15,2013-04-27 23:31:00,
2013-04-27 19:35:00,55.9,40.9,30.23,East,84,0.0,0.0,57,0.00,,,0.00,Wunderground v.1.15,2013-04-27 23:35:00,
2013-04-27 19:36:00,56.3,40.8,30.23,East,90,0.0,-999.0,56,0.00,,,0.00,Wunderground v.1.15,2013-04-27 23:36:00,
2013-04-27 19:41:00,56.3,40.8,30.23,East,90,0.0,-999.0,56,0.00,,,0.00,Wunderground v.1.15,2013-04-27 23:41:00,
2013-04-27 19:45:00,54.2,40.2,30.23,East,84,0.0,0.0,59,0.00,,,0.00,Wunderground v.1.15,2013-04-27 23:45:00,
2013-04-27 19:46:00,50.3,39.4,30.23,East,90,0.0,-999.0,66,0.00,,,0.00,Wunderground v.1.15,2013-04-27 23:46:00,
2013-04-27 19:51:00,50.3,39.4,30.23,East,90,0.0,-999.0,66,0.00,,,0.00,Wunderground v.1.15,2013-04-27 23:51:00,
2013-04-27 19:56:00,50.3,39.4,30.23,East,90,0.0,-999.0,66,0.00,,,0.00,Wunderground v.1.15,2013-04-27 23:56:00,
2013-04-27 20:01:00,50.3,39.4,30.23,East,90,0.0,-999.0,66,0.00,,,0.00,Wunderground v.1.15,2013-04-28 00:01:00,
2013-04-27 20:06:00,50.3,39.4,30.23,East,90,0.0,-999.0,66,0.00,,,0.00,Wunderground v.1.15,2013-04-28 00:06:00,
2013-04-27 20:11:00,50.3,39.4,30.23,East,90,0.0,-999.0,66,0.00,,,0.00,Wunderground v.1.15,2013-04-28 00:11:00,
2013-04-27 20:16:00,47.9,41.4,30.23,East,90,0.0,-999.0,78,0.00,,,0.00,Wunderground v.1.15,2013-04-28 00:16:00,
2013-04-27 20:21:00,47.9,41.4,30.23,East,90,0.0,-999.0,78,0.00,,,0.00,Wunderground v.1.15,2013-04-28 00:21:00,
2013-04-27 20:26:00,47.9,41.4,30.23,East,90,0.0,-999.0,78,0.00,,,0.00,Wunderground v.1.15,2013-04-28 00:26:00,
2013-04-27 20:31:00,47.9,41.4,30.23,East,90,0.0,-999.0,78,0.00,,,0.00,Wunderground v.1.15,2013-04-28 00:31:00,
2013-04-27 20:36:00,47.9,41.4,30.23,East,90,0.0,-999.0,78,0.00,,,0.00,Wunderground v.1.15,2013-04-28 00:36:00,
2013-04-27 20:41:00,47.9,41.4,30.23,East,90,0.0,-999.0,78,0.00,,,0.00,Wunderground v.1.15,2013-04-28 00:41:00,
2013-04-27 20:46:00,46.1,40.9,30.24,N/A,-737280,0.0,-999.0,82,0.00,,,0.00,Wunderground v.1.15,2013-04-28 00:46:00,
2013-04-27 20:51:00,46.1,40.9,30.24,N/A,-737280,0.0,-999.0,82,0.00,,,0.00,Wunderground v.1.15,2013-04-28 00:51:00,
2013-04-27 20:56:00,46.1,40.9,30.24,N/A,-737280,0.0,-999.0,82,0.00,,,0.00,Wunderground v.1.15,2013-04-28 00:56:00,
2013-04-27 21:01:00,46.1,40.9,30.24,N/A,-737280,0.0,-999.0,82,0.00,,,0.00,Wunderground v.1.15,2013-04-28 01:01:00,
2013-04-27 21:06:00,46.1,40.9,30.24,N/A,-737280,0.0,-999.0,82,0.00,,,0.00,Wunderground v.1.15,2013-04-28 01:06:00,
2013-04-27 21:11:00,46.1,40.9,30.24,N/A,-737280,0.0,-999.0,82,0.00,,,0.00,Wunderground v.1.15,2013-04-28 01:11:00,
2013-04-27 21:16:00,44.9,40.4,30.24,N/A,-737280,0.0,-999.0,84,0.00,,,0.00,Wunderground v.1.15,2013-04-28 01:16:00,
2013-04-27 21:21:00,44.9,40.4,30.24,N/A,-737280,0.0,-999.0,84,0.00,,,0.00,Wunderground v.1.15,2013-04-28 01:21:00,
2013-04-27 21:26:00,44.9,40.4,30.24,N/A,-737280,0.0,-999.0,84,0.00,,,0.00,Wunderground v.1.15,2013-04-28 01:26:00,
2013-04-27 21:31:00,44.9,40.4,30.24,N/A,-737280,0.0,-999.0,84,0.00,,,0.00,Wunderground v.1.15,2013-04-28 01:31:00,
2013-04-27 21:36:00,44.9,40.4,30.24,N/A,-737280,0.0,-999.0,84,0.00,,,0.00,Wunderground v.1.15,2013-04-28 01:36:00,
2013-04-27 21:41:00,44.9,40.4,30.24,N/A,-737280,0.0,-999.0,84,0.00,,,0.00,Wunderground v.1.15,2013-04-28 01:41:00,
2013-04-27 21:46:00,44.1,39.9,30.24,N/A,-737280,0.0,-999.0,85,0.00,,,0.00,Wunderground v.1.15,2013-04-28 01:46:00,
2013-04-27 21:51:00,44.1,39.9,30.24,N/A,-737280,0.0,-999.0,85,0.00,,,0.00,Wunderground v.1.15,2013-04-28 01:51:00,
2013-04-27 21:56:00,44.1,39.9,30.24,N/A,-737280,0.0,-999.0,85,0.00,,,0.00,Wunderground v.1.15,2013-04-28 01:56:00,
2013-04-27 22:01:00,44.1,39.9,30.24,N/A,-737280,0.0,-999.0,85,0.00,,,0.00,Wunderground v.1.15,2013-04-28 02:01:00,
2013-04-27 22:06:00,44.1,39.9,30.24,N/A,-737280,0.0,-999.0,85,0.00,,,0.00,Wunderground v.1.15,2013-04-28 02:06:00,
2013-04-27 22:11:00,44.1,39.9,30.24,N/A,-737280,0.0,-999.0,85,0.00,,,0.00,Wunderground v.1.15,2013-04-28 02:11:00,
2013-04-27 22:16:00,42.9,39.3,30.23,N/A,-737280,0.0,-999.0,87,0.00,,,0.00,Wunderground v.1.15,2013-04-28 02:16:00,
2013-04-27 22:21:00,42.9,39.3,30.23,N/A,-737280,0.0,-999.0,87,0.00,,,0.00,Wunderground v.1.15,2013-04-28 02:21:00,
2013-04-27 22:26:00,42.9,39.3,30.23,N/A,-737280,0.0,-999.0,87,0.00,,,0.00,Wunderground v.1.15,2013-04-28 02:26:00,
2013-04-27 22:31:00,42.9,39.3,30.23,N/A,-737280,0.0,-999.0,87,0.00,,,0.00,Wunderground v.1.15,2013-04-28 02:31:00,
2013-04-27 22:36:00,42.9,39.3,30.23,N/A,-737280,0.0,-999.0,87,0.00,,,0.00,Wunderground v.1.15,2013-04-28 02:36:00,
2013-04-27 22:41:00,42.9,39.3,30.23,N/A,-737280,0.0,-999.0,87,0.00,,,0.00,Wunderground v.1.15,2013-04-28 02:41:00,
2013-04-27 22:46:00,42.4,39.4,30.22,N/A,-737280,0.0,-999.0,89,0.00,,,0.00,Wunderground v.1.15,2013-04-28 02:46:00,
2013-04-27 22:51:00,42.4,39.4,30.22,N/A,-737280,0.0,-999.0,89,0.00,,,0.00,Wunderground v.1.15,2013-04-28 02:51:00,
2013-04-27 22:56:00,42.4,39.4,30.22,N/A,-737280,0.0,-999.0,89,0.00,,,0.00,Wunderground v.1.15,2013-04-28 02:56:00,
2013-04-27 23:01:00,42.4,39.4,30.22,N/A,-737280,0.0,-999.0,89,0.00,,,0.00,Wunderground v.1.15,2013-04-28 03:01:00,
2013-04-27 23:06:00,42.4,39.4,30.22,N/A,-737280,0.0,-999.0,89,0.00,,,0.00,Wunderground v.1.15,2013-04-28 03:06:00,
2013-04-27 23:11:00,42.4,39.4,30.22,N/A,-737280,0.0,-999.0,89,0.00,,,0.00,Wunderground v.1.15,2013-04-28 03:11:00,
2013-04-27 23:16:00,41.6,38.9,30.22,N/A,-737280,0.0,-999.0,90,0.00,,,0.00,Wunderground v.1.15,2013-04-28 03:16:00,
2013-04-27 23:21:00,41.6,38.9,30.22,N/A,-737280,0.0,-999.0,90,0.00,,,0.00,Wunderground v.1.15,2013-04-28 03:21:00,
2013-04-27 23:26:00,41.6,38.9,30.22,N/A,-737280,0.0,-999.0,90,0.00,,,0.00,Wunderground v.1.15,2013-04-28 03:26:00,
2013-04-27 23:31:00,41.6,38.9,30.22,N/A,-737280,0.0,-999.0,90,0.00,,,0.00,Wunderground v.1.15,2013-04-28 03:31:00,
2013-04-27 23:36:00,41.6,38.9,30.22,N/A,-737280,0.0,-999.0,90,0.00,,,0.00,Wunderground v.1.15,2013-04-28 03:36:00,
2013-04-27 23:41:00,41.6,38.9,30.22,N/A,-737280,0.0,-999.0,90,0.00,,,0.00,Wunderground v.1.15,2013-04-28 03:41:00,
2013-04-27 23:46:00,41.0,38.9,30.22,N/A,-737280,0.0,-999.0,92,0.00,,,0.00,Wunderground v.1.15,2013-04-28 03:46:00,
2013-04-27 23:51:00,41.0,38.9,30.22,N/A,-737280,0.0,-999.0,92,0.00,,,0.00,Wunderground v.1.15,2013-04-28 03:51:00,
2013-04-27 23:56:00,41.0,38.9,30.22,N/A,-737280,0.0,-999.0,92,0.00,,,0.00,Wunderground v.1.15,2013-04-28 03:56:00,